sensor_id;sensor_type;location;lat;lon;timestamp;pressure;altitude;pressure_sealevel;temperature;humidity
70781;BME280;59514;48.810;2.134;2022-07-29T00:00:42;100263.34;;;21.00;42.86
70781;BME280;59514;48.810;2.134;2022-07-29T00:03:11;100258.28;;;20.94;42.67
70781;BME280;59514;48.810;2.134;2022-07-29T00:05:39;100257.53;;;20.88;42.75
70781;BME280;59514;48.810;2.134;2022-07-29T00:08:04;100261.28;;;20.92;43.24
70781;BME280;59514;48.810;2.134;2022-07-29T00:10:30;100254.22;;;20.91;43.26
70781;BME280;59514;48.810;2.134;2022-07-29T00:12:55;100251.53;;;20.86;42.98
70781;BME280;59514;48.810;2.134;2022-07-29T00:15:20;100245.34;;;20.81;43.23
70781;BME280;59514;48.810;2.134;2022-07-29T00:17:46;100242.41;;;20.77;43.29
70781;BME280;59514;48.810;2.134;2022-07-29T00:20:11;100240.34;;;20.69;43.43
70781;BME280;59514;48.810;2.134;2022-07-29T00:22:38;100241.38;;;20.73;43.83
70781;BME280;59514;48.810;2.134;2022-07-29T00:25:04;100239.16;;;20.75;43.63
70781;BME280;59514;48.810;2.134;2022-07-29T00:27:29;100230.75;;;20.72;44.08
70781;BME280;59514;48.810;2.134;2022-07-29T00:29:55;100237.91;;;20.68;44.16
70781;BME280;59514;48.810;2.134;2022-07-29T00:32:20;100236.88;;;20.64;44.68
70781;BME280;59514;48.810;2.134;2022-07-29T00:34:45;100229.56;;;20.59;44.65
70781;BME280;59514;48.810;2.134;2022-07-29T00:37:29;100228.22;;;20.56;44.50
70781;BME280;59514;48.810;2.134;2022-07-29T00:39:54;100229.66;;;20.54;44.97
70781;BME280;59514;48.810;2.134;2022-07-29T00:42:20;100232.66;;;20.52;44.86
70781;BME280;59514;48.810;2.134;2022-07-29T00:44:45;100236.19;;;20.53;45.15
70781;BME280;59514;48.810;2.134;2022-07-29T00:47:11;100228.09;;;20.48;45.18
70781;BME280;59514;48.810;2.134;2022-07-29T00:49:38;100227.94;;;20.39;44.68
70781;BME280;59514;48.810;2.134;2022-07-29T00:52:04;100229.84;;;20.39;44.55
70781;BME280;59514;48.810;2.134;2022-07-29T00:54:30;100236.34;;;20.43;44.54
70781;BME280;59514;48.810;2.134;2022-07-29T00:56:59;100225.13;;;20.44;45.16
70781;BME280;59514;48.810;2.134;2022-07-29T00:59:26;100227.50;;;20.51;44.95
70781;BME280;59514;48.810;2.134;2022-07-29T01:01:52;100225.88;;;20.50;44.84
70781;BME280;59514;48.810;2.134;2022-07-29T01:04:18;100226.97;;;20.49;45.04
70781;BME280;59514;48.810;2.134;2022-07-29T01:06:44;100219.91;;;20.48;45.12
70781;BME280;59514;48.810;2.134;2022-07-29T01:09:10;100220.50;;;20.45;45.26
70781;BME280;59514;48.810;2.134;2022-07-29T01:11:36;100224.38;;;20.39;45.20
70781;BME280;59514;48.810;2.134;2022-07-29T01:14:02;100224.47;;;20.34;45.57
70781;BME280;59514;48.810;2.134;2022-07-29T01:16:31;100221.56;;;20.25;46.39
70781;BME280;59514;48.810;2.134;2022-07-29T01:19:03;100229.00;;;20.20;46.86
70781;BME280;59514;48.810;2.134;2022-07-29T01:27:15;100235.28;;;20.15;47.44
70781;BME280;59514;48.810;2.134;2022-07-29T01:29:57;100230.44;;;20.12;48.38
70781;BME280;59514;48.810;2.134;2022-07-29T01:32:26;100239.81;;;20.01;49.14
70781;BME280;59514;48.810;2.134;2022-07-29T01:37:28;100243.47;;;19.92;50.14
70781;BME280;59514;48.810;2.134;2022-07-29T01:39:56;100237.00;;;19.83;51.06
70781;BME280;59514;48.810;2.134;2022-07-29T01:42:38;100233.53;;;19.77;50.99
70781;BME280;59514;48.810;2.134;2022-07-29T01:45:34;100231.19;;;19.70;50.89
70781;BME280;59514;48.810;2.134;2022-07-29T01:48:05;100237.25;;;19.62;50.72
70781;BME280;59514;48.810;2.134;2022-07-29T01:50:39;100235.59;;;19.61;50.90
70781;BME280;59514;48.810;2.134;2022-07-29T01:53:08;100233.19;;;19.60;51.17
70781;BME280;59514;48.810;2.134;2022-07-29T01:55:38;100230.75;;;19.58;51.45
70781;BME280;59514;48.810;2.134;2022-07-29T01:58:05;100231.53;;;19.59;51.20
70781;BME280;59514;48.810;2.134;2022-07-29T02:00:32;100237.34;;;19.52;50.65
70781;BME280;59514;48.810;2.134;2022-07-29T02:03:03;100237.91;;;19.49;51.01
70781;BME280;59514;48.810;2.134;2022-07-29T02:05:32;100238.50;;;19.46;50.85
70781;BME280;59514;48.810;2.134;2022-07-29T02:08:00;100228.75;;;19.40;50.82
70781;BME280;59514;48.810;2.134;2022-07-29T02:10:29;100239.06;;;19.43;50.79
70781;BME280;59514;48.810;2.134;2022-07-29T02:12:57;100237.44;;;19.42;51.09
70781;BME280;59514;48.810;2.134;2022-07-29T02:15:27;100239.97;;;19.34;51.00
70781;BME280;59514;48.810;2.134;2022-07-29T02:18:01;100241.84;;;19.33;51.33
70781;BME280;59514;48.810;2.134;2022-07-29T02:20:28;100243.97;;;19.41;51.07
70781;BME280;59514;48.810;2.134;2022-07-29T02:22:55;100250.47;;;19.45;50.63
70781;BME280;59514;48.810;2.134;2022-07-29T02:25:22;100237.19;;;19.39;50.73
70781;BME280;59514;48.810;2.134;2022-07-29T02:27:50;100241.88;;;19.28;51.27
70781;BME280;59514;48.810;2.134;2022-07-29T02:30:17;100241.59;;;19.30;51.22
70781;BME280;59514;48.810;2.134;2022-07-29T02:32:43;100241.06;;;19.28;51.32
70781;BME280;59514;48.810;2.134;2022-07-29T02:35:12;100243.03;;;19.22;51.34
70781;BME280;59514;48.810;2.134;2022-07-29T02:37:39;100240.91;;;19.14;52.05
70781;BME280;59514;48.810;2.134;2022-07-29T02:40:09;100252.88;;;19.13;52.92
70781;BME280;59514;48.810;2.134;2022-07-29T02:42:36;100250.00;;;19.00;53.99
70781;BME280;59514;48.810;2.134;2022-07-29T02:45:03;100250.22;;;19.03;53.72
70781;BME280;59514;48.810;2.134;2022-07-29T02:47:47;100244.75;;;19.08;53.46
70781;BME280;59514;48.810;2.134;2022-07-29T02:50:22;100249.69;;;19.06;52.95
70781;BME280;59514;48.810;2.134;2022-07-29T02:55:37;100245.28;;;19.10;53.27
70781;BME280;59514;48.810;2.134;2022-07-29T02:58:14;100242.56;;;19.10;53.36
70781;BME280;59514;48.810;2.134;2022-07-29T03:00:41;100245.91;;;19.02;52.76
70781;BME280;59514;48.810;2.134;2022-07-29T03:03:11;100247.03;;;18.96;52.13
70781;BME280;59514;48.810;2.134;2022-07-29T03:05:37;100256.28;;;18.95;51.91
70781;BME280;59514;48.810;2.134;2022-07-29T03:08:04;100265.25;;;18.96;52.30
70781;BME280;59514;48.810;2.134;2022-07-29T03:10:31;100258.75;;;18.91;53.12
70781;BME280;59514;48.810;2.134;2022-07-29T03:12:57;100257.44;;;18.84;53.03
70781;BME280;59514;48.810;2.134;2022-07-29T03:15:23;100257.72;;;18.82;53.66
70781;BME280;59514;48.810;2.134;2022-07-29T03:17:49;100253.38;;;18.81;53.35
70781;BME280;59514;48.810;2.134;2022-07-29T03:20:17;100259.69;;;18.77;53.28
70781;BME280;59514;48.810;2.134;2022-07-29T03:22:44;100257.75;;;18.77;53.73
70781;BME280;59514;48.810;2.134;2022-07-29T03:25:13;100260.22;;;18.79;52.50
70781;BME280;59514;48.810;2.134;2022-07-29T03:27:39;100258.09;;;18.71;53.09
70781;BME280;59514;48.810;2.134;2022-07-29T03:30:06;100252.63;;;18.71;52.86
70781;BME280;59514;48.810;2.134;2022-07-29T03:32:32;100258.13;;;18.61;53.33
70781;BME280;59514;48.810;2.134;2022-07-29T03:34:57;100259.25;;;18.55;53.51
70781;BME280;59514;48.810;2.134;2022-07-29T03:37:22;100248.38;;;18.55;53.40
70781;BME280;59514;48.810;2.134;2022-07-29T03:39:49;100249.75;;;18.42;53.94
70781;BME280;59514;48.810;2.134;2022-07-29T03:42:18;100265.81;;;18.49;53.54
70781;BME280;59514;48.810;2.134;2022-07-29T03:44:47;100265.22;;;18.57;54.05
70781;BME280;59514;48.810;2.134;2022-07-29T03:47:14;100272.31;;;18.53;54.41
70781;BME280;59514;48.810;2.134;2022-07-29T03:49:40;100270.19;;;18.45;54.88
70781;BME280;59514;48.810;2.134;2022-07-29T03:52:07;100266.34;;;18.46;55.97
70781;BME280;59514;48.810;2.134;2022-07-29T03:54:33;100267.47;;;18.35;55.16
70781;BME280;59514;48.810;2.134;2022-07-29T03:57:01;100262.03;;;18.35;55.34
70781;BME280;59514;48.810;2.134;2022-07-29T03:59:27;100265.28;;;18.32;55.60
70781;BME280;59514;48.810;2.134;2022-07-29T04:01:53;100273.75;;;18.20;56.47
70781;BME280;59514;48.810;2.134;2022-07-29T04:04:19;100277.91;;;18.02;56.70
70781;BME280;59514;48.810;2.134;2022-07-29T04:06:45;100282.50;;;18.02;57.10
70781;BME280;59514;48.810;2.134;2022-07-29T04:09:11;100286.88;;;17.98;57.40
70781;BME280;59514;48.810;2.134;2022-07-29T04:11:41;100278.44;;;18.04;57.76
70781;BME280;59514;48.810;2.134;2022-07-29T04:14:07;100278.41;;;18.09;57.34
70781;BME280;59514;48.810;2.134;2022-07-29T04:16:33;100275.16;;;18.13;56.67
70781;BME280;59514;48.810;2.134;2022-07-29T04:18:58;100273.50;;;18.12;57.18
70781;BME280;59514;48.810;2.134;2022-07-29T04:21:24;100280.66;;;17.97;56.89
70781;BME280;59514;48.810;2.134;2022-07-29T04:23:50;100281.19;;;17.99;57.37
70781;BME280;59514;48.810;2.134;2022-07-29T04:26:19;100283.91;;;17.99;56.67
70781;BME280;59514;48.810;2.134;2022-07-29T04:28:46;100286.28;;;18.16;55.89
70781;BME280;59514;48.810;2.134;2022-07-29T04:31:12;100290.91;;;18.21;55.90
70781;BME280;59514;48.810;2.134;2022-07-29T04:33:38;100285.47;;;18.21;55.35
70781;BME280;59514;48.810;2.134;2022-07-29T04:36:04;100283.56;;;18.16;55.66
70781;BME280;59514;48.810;2.134;2022-07-29T04:38:29;100284.63;;;18.20;54.75
70781;BME280;59514;48.810;2.134;2022-07-29T04:40:55;100280.03;;;18.21;54.66
70781;BME280;59514;48.810;2.134;2022-07-29T04:43:20;100272.41;;;18.23;53.75
70781;BME280;59514;48.810;2.134;2022-07-29T04:45:45;100276.47;;;18.25;53.34
70781;BME280;59514;48.810;2.134;2022-07-29T04:48:11;100283.00;;;18.29;53.63
70781;BME280;59514;48.810;2.134;2022-07-29T04:50:40;100288.69;;;18.33;53.59
70781;BME280;59514;48.810;2.134;2022-07-29T04:53:05;100283.78;;;18.35;53.57
70781;BME280;59514;48.810;2.134;2022-07-29T04:55:31;100287.56;;;18.34;53.72
70781;BME280;59514;48.810;2.134;2022-07-29T04:57:56;100285.44;;;18.31;53.52
70781;BME280;59514;48.810;2.134;2022-07-29T05:00:22;100285.97;;;18.28;53.46
70781;BME280;59514;48.810;2.134;2022-07-29T05:02:48;100294.63;;;18.40;53.18
70781;BME280;59514;48.810;2.134;2022-07-29T05:05:14;100291.34;;;18.48;53.83
70781;BME280;59514;48.810;2.134;2022-07-29T05:07:39;100295.69;;;18.54;53.67
70781;BME280;59514;48.810;2.134;2022-07-29T05:10:05;100294.59;;;18.55;54.11
70781;BME280;59514;48.810;2.134;2022-07-29T05:12:30;100290.81;;;18.51;54.07
70781;BME280;59514;48.810;2.134;2022-07-29T05:14:55;100294.66;;;18.45;54.53
70781;BME280;59514;48.810;2.134;2022-07-29T05:17:21;100295.72;;;18.44;53.56
70781;BME280;59514;48.810;2.134;2022-07-29T05:19:46;100292.22;;;18.43;53.43
70781;BME280;59514;48.810;2.134;2022-07-29T05:22:11;100294.63;;;18.40;54.19
70781;BME280;59514;48.810;2.134;2022-07-29T05:24:37;100290.03;;;18.35;53.74
70781;BME280;59514;48.810;2.134;2022-07-29T05:27:02;100283.50;;;18.36;54.35
70781;BME280;59514;48.810;2.134;2022-07-29T05:29:27;100292.72;;;18.40;54.64
70781;BME280;59514;48.810;2.134;2022-07-29T05:31:53;100294.06;;;18.48;54.50
70781;BME280;59514;48.810;2.134;2022-07-29T05:34:18;100294.66;;;18.35;54.04
70781;BME280;59514;48.810;2.134;2022-07-29T05:36:44;100299.81;;;18.36;55.02
70781;BME280;59514;48.810;2.134;2022-07-29T05:39:10;100304.41;;;18.36;54.27
70781;BME280;59514;48.810;2.134;2022-07-29T05:41:35;100313.72;;;18.25;53.91
70781;BME280;59514;48.810;2.134;2022-07-29T05:44:01;100309.31;;;18.39;54.52
70781;BME280;59514;48.810;2.134;2022-07-29T05:46:27;100317.47;;;18.34;55.23
70781;BME280;59514;48.810;2.134;2022-07-29T05:48:53;100315.88;;;18.33;55.69
70781;BME280;59514;48.810;2.134;2022-07-29T05:51:18;100318.63;;;18.13;56.50
70781;BME280;59514;48.810;2.134;2022-07-29T05:53:43;100322.69;;;18.20;55.51
70781;BME280;59514;48.810;2.134;2022-07-29T05:56:10;100328.47;;;17.73;57.27
70781;BME280;59514;48.810;2.134;2022-07-29T05:58:35;100329.00;;;17.70;58.52
70781;BME280;59514;48.810;2.134;2022-07-29T06:01:01;100323.56;;;17.90;57.98
70781;BME280;59514;48.810;2.134;2022-07-29T06:03:27;100328.75;;;17.87;57.49
70781;BME280;59514;48.810;2.134;2022-07-29T06:05:52;100326.28;;;17.95;57.39
70781;BME280;59514;48.810;2.134;2022-07-29T06:08:17;100326.25;;;18.05;57.39
70781;BME280;59514;48.810;2.134;2022-07-29T06:10:43;100316.75;;;17.98;56.86
70781;BME280;59514;48.810;2.134;2022-07-29T06:13:09;100317.56;;;17.98;56.80
70781;BME280;59514;48.810;2.134;2022-07-29T06:15:34;100337.09;;;18.21;56.66
70781;BME280;59514;48.810;2.134;2022-07-29T06:18:00;100335.44;;;18.30;56.47
70781;BME280;59514;48.810;2.134;2022-07-29T06:20:26;100345.56;;;17.94;56.71
70781;BME280;59514;48.810;2.134;2022-07-29T06:22:52;100336.84;;;18.02;56.81
70781;BME280;59514;48.810;2.134;2022-07-29T06:25:17;100347.72;;;18.02;57.19
70781;BME280;59514;48.810;2.134;2022-07-29T06:27:42;100350.44;;;18.02;57.09
70781;BME280;59514;48.810;2.134;2022-07-29T06:30:08;100359.97;;;17.99;57.79
70781;BME280;59514;48.810;2.134;2022-07-29T06:32:33;100356.16;;;18.00;57.82
70781;BME280;59514;48.810;2.134;2022-07-29T06:35:00;100349.38;;;17.73;58.84
70781;BME280;59514;48.810;2.134;2022-07-29T06:37:25;100354.00;;;17.72;59.07
70781;BME280;59514;48.810;2.134;2022-07-29T06:39:51;100355.09;;;17.86;58.90
70781;BME280;59514;48.810;2.134;2022-07-29T06:42:36;100351.25;;;18.07;57.61
70781;BME280;59514;48.810;2.134;2022-07-29T06:45:01;100362.94;;;18.03;58.13
70781;BME280;59514;48.810;2.134;2022-07-29T06:47:27;100352.59;;;18.15;57.67
70781;BME280;59514;48.810;2.134;2022-07-29T06:49:52;100361.78;;;18.34;58.31
70781;BME280;59514;48.810;2.134;2022-07-29T06:52:18;100367.78;;;18.46;57.36
70781;BME280;59514;48.810;2.134;2022-07-29T06:54:43;100366.66;;;18.47;57.34
70781;BME280;59514;48.810;2.134;2022-07-29T06:57:13;100367.00;;;18.11;57.88
70781;BME280;59514;48.810;2.134;2022-07-29T06:59:38;100362.66;;;18.15;57.50
70781;BME280;59514;48.810;2.134;2022-07-29T07:02:04;100367.00;;;18.21;57.35
70781;BME280;59514;48.810;2.134;2022-07-29T07:04:29;100361.28;;;18.27;57.43
70781;BME280;59514;48.810;2.134;2022-07-29T07:06:54;100362.38;;;18.21;56.92
70781;BME280;59514;48.810;2.134;2022-07-29T07:09:20;100358.50;;;18.42;56.80
70781;BME280;59514;48.810;2.134;2022-07-29T07:11:46;100366.16;;;18.45;55.85
70781;BME280;59514;48.810;2.134;2022-07-29T07:14:11;100373.44;;;18.65;55.04
70781;BME280;59514;48.810;2.134;2022-07-29T07:16:37;100366.88;;;18.71;54.39
70781;BME280;59514;48.810;2.134;2022-07-29T07:19:02;100366.50;;;18.87;53.82
70781;BME280;59514;48.810;2.134;2022-07-29T07:21:27;100366.72;;;19.01;53.65
70781;BME280;59514;48.810;2.134;2022-07-29T07:23:53;100368.91;;;19.04;53.20
70781;BME280;59514;48.810;2.134;2022-07-29T07:26:18;100369.66;;;19.15;52.50
70781;BME280;59514;48.810;2.134;2022-07-29T07:28:44;100373.16;;;19.20;52.68
70781;BME280;59514;48.810;2.134;2022-07-29T07:31:10;100369.00;;;19.33;52.52
70781;BME280;59514;48.810;2.134;2022-07-29T07:33:35;100377.63;;;19.45;52.94
70781;BME280;59514;48.810;2.134;2022-07-29T07:36:00;100370.28;;;19.50;52.40
70781;BME280;59514;48.810;2.134;2022-07-29T07:38:26;100371.28;;;19.59;51.41
70781;BME280;59514;48.810;2.134;2022-07-29T07:40:51;100373.31;;;19.77;51.20
70781;BME280;59514;48.810;2.134;2022-07-29T07:43:16;100370.19;;;19.94;50.87
70781;BME280;59514;48.810;2.134;2022-07-29T07:45:42;100373.91;;;20.03;50.50
70781;BME280;59514;48.810;2.134;2022-07-29T07:48:07;100372.19;;;20.12;50.33
70781;BME280;59514;48.810;2.134;2022-07-29T07:50:35;100369.56;;;20.31;49.90
70781;BME280;59514;48.810;2.134;2022-07-29T07:53:00;100375.41;;;20.48;49.41
70781;BME280;59514;48.810;2.134;2022-07-29T07:55:27;100381.31;;;20.55;49.66
70781;BME280;59514;48.810;2.134;2022-07-29T07:57:53;100383.31;;;20.68;49.54
70781;BME280;59514;48.810;2.134;2022-07-29T08:00:20;100378.88;;;20.77;49.08
70781;BME280;59514;48.810;2.134;2022-07-29T08:02:46;100380.13;;;20.85;48.40
70781;BME280;59514;48.810;2.134;2022-07-29T08:05:12;100379.19;;;20.94;48.09
70781;BME280;59514;48.810;2.134;2022-07-29T08:07:42;100377.47;;;21.03;47.59
70781;BME280;59514;48.810;2.134;2022-07-29T08:10:07;100378.13;;;21.14;46.72
70781;BME280;59514;48.810;2.134;2022-07-29T08:12:33;100380.59;;;21.15;46.74
70781;BME280;59514;48.810;2.134;2022-07-29T08:14:58;100385.81;;;21.30;45.83
70781;BME280;59514;48.810;2.134;2022-07-29T08:17:24;100378.66;;;21.34;46.08
70781;BME280;59514;48.810;2.134;2022-07-29T08:19:49;100376.91;;;21.43;46.09
70781;BME280;59514;48.810;2.134;2022-07-29T08:22:15;100371.88;;;21.51;46.32
70781;BME280;59514;48.810;2.134;2022-07-29T08:24:40;100383.88;;;21.68;44.72
70781;BME280;59514;48.810;2.134;2022-07-29T08:27:12;100381.28;;;21.77;44.70
70781;BME280;59514;48.810;2.134;2022-07-29T08:29:38;100381.22;;;21.82;45.13
70781;BME280;59514;48.810;2.134;2022-07-29T08:32:04;100380.53;;;21.90;44.67
70781;BME280;59514;48.810;2.134;2022-07-29T08:34:29;100383.72;;;21.97;44.91
70781;BME280;59514;48.810;2.134;2022-07-29T08:36:55;100376.41;;;21.92;45.29
70781;BME280;59514;48.810;2.134;2022-07-29T08:39:21;100386.63;;;21.87;45.25
70781;BME280;59514;48.810;2.134;2022-07-29T08:41:47;100383.59;;;21.88;45.08
70781;BME280;59514;48.810;2.134;2022-07-29T08:44:18;100374.59;;;22.01;44.06
70781;BME280;59514;48.810;2.134;2022-07-29T08:46:44;100382.22;;;22.04;44.44
70781;BME280;59514;48.810;2.134;2022-07-29T08:49:10;100376.63;;;22.09;44.75
70781;BME280;59514;48.810;2.134;2022-07-29T08:51:39;100379.00;;;22.16;44.51
70781;BME280;59514;48.810;2.134;2022-07-29T08:54:05;100379.19;;;22.19;43.82
70781;BME280;59514;48.810;2.134;2022-07-29T08:56:31;100375.66;;;22.19;43.76
70781;BME280;59514;48.810;2.134;2022-07-29T08:58:58;100371.81;;;22.20;43.65
70781;BME280;59514;48.810;2.134;2022-07-29T09:01:25;100374.75;;;22.23;44.10
70781;BME280;59514;48.810;2.134;2022-07-29T09:03:55;100373.34;;;22.26;44.73
70781;BME280;59514;48.810;2.134;2022-07-29T09:06:22;100372.13;;;22.32;44.48
70781;BME280;59514;48.810;2.134;2022-07-29T09:08:47;100376.09;;;22.40;44.07
70781;BME280;59514;48.810;2.134;2022-07-29T09:11:14;100373.53;;;22.43;44.11
70781;BME280;59514;48.810;2.134;2022-07-29T09:13:40;100369.50;;;22.54;43.45
70781;BME280;59514;48.810;2.134;2022-07-29T09:16:05;100368.03;;;22.62;42.62
70781;BME280;59514;48.810;2.134;2022-07-29T09:18:39;100362.84;;;22.60;42.48
70781;BME280;59514;48.810;2.134;2022-07-29T09:21:07;100367.38;;;22.51;41.95
70781;BME280;59514;48.810;2.134;2022-07-29T09:24:21;100367.72;;;22.63;42.82
70781;BME280;59514;48.810;2.134;2022-07-29T09:26:46;100373.59;;;22.70;42.92
70781;BME280;59514;48.810;2.134;2022-07-29T09:29:18;100363.66;;;22.74;42.56
70781;BME280;59514;48.810;2.134;2022-07-29T09:31:45;100364.84;;;22.95;41.46
70781;BME280;59514;48.810;2.134;2022-07-29T09:34:13;100371.03;;;23.15;40.63
70781;BME280;59514;48.810;2.134;2022-07-29T09:36:44;100377.47;;;23.19;39.95
70781;BME280;59514;48.810;2.134;2022-07-29T09:39:10;100374.53;;;23.15;40.15
70781;BME280;59514;48.810;2.134;2022-07-29T09:41:50;100378.38;;;23.28;39.02
70781;BME280;59514;48.810;2.134;2022-07-29T09:44:18;100373.50;;;23.25;39.85
70781;BME280;59514;48.810;2.134;2022-07-29T09:47:00;100369.66;;;23.26;39.91
70781;BME280;59514;48.810;2.134;2022-07-29T09:49:36;100374.25;;;23.17;40.25
70781;BME280;59514;48.810;2.134;2022-07-29T09:52:14;100366.66;;;23.13;40.25
70781;BME280;59514;48.810;2.134;2022-07-29T09:54:40;100377.25;;;23.29;39.57
70781;BME280;59514;48.810;2.134;2022-07-29T09:57:09;100379.41;;;23.32;39.70
70781;BME280;59514;48.810;2.134;2022-07-29T09:59:56;100381.13;;;23.28;39.67
70781;BME280;59514;48.810;2.134;2022-07-29T10:02:27;100377.75;;;23.44;39.42
70781;BME280;59514;48.810;2.134;2022-07-29T10:04:53;100377.25;;;23.64;39.03
70781;BME280;59514;48.810;2.134;2022-07-29T10:07:18;100376.97;;;23.66;38.63
70781;BME280;59514;48.810;2.134;2022-07-29T10:09:56;100376.41;;;23.55;39.01
70781;BME280;59514;48.810;2.134;2022-07-29T10:12:23;100373.47;;;23.52;39.36
70781;BME280;59514;48.810;2.134;2022-07-29T10:14:49;100373.97;;;23.54;38.94
70781;BME280;59514;48.810;2.134;2022-07-29T10:17:16;100378.81;;;23.57;39.49
70781;BME280;59514;48.810;2.134;2022-07-29T10:19:42;100369.84;;;23.65;39.06
70781;BME280;59514;48.810;2.134;2022-07-29T10:22:09;100374.97;;;23.80;38.41
70781;BME280;59514;48.810;2.134;2022-07-29T10:24:36;100368.28;;;24.17;37.66
70781;BME280;59514;48.810;2.134;2022-07-29T10:27:04;100368.97;;;24.00;37.78
70781;BME280;59514;48.810;2.134;2022-07-29T10:29:30;100373.47;;;23.96;38.22
70781;BME280;59514;48.810;2.134;2022-07-29T10:43:48;100375.59;;;26.57;32.99
70781;BME280;59514;48.810;2.134;2022-07-29T10:46:14;100370.38;;;27.02;31.92
70781;BME280;59514;48.810;2.134;2022-07-29T10:54:15;100363.72;;;28.18;30.58
70781;BME280;59514;48.810;2.134;2022-07-29T10:56:41;100368.94;;;28.44;29.87
70781;BME280;59514;48.810;2.134;2022-07-29T11:01:45;100373.44;;;29.09;29.95
70781;BME280;59514;48.810;2.134;2022-07-29T11:04:10;100374.13;;;28.45;29.52
70781;BME280;59514;48.810;2.134;2022-07-29T11:09:27;100379.69;;;28.93;29.73
70781;BME280;59514;48.810;2.134;2022-07-29T11:11:55;100380.75;;;28.77;29.81
70781;BME280;59514;48.810;2.134;2022-07-29T11:17:17;100381.09;;;30.07;28.05
70781;BME280;59514;48.810;2.134;2022-07-29T11:19:42;100375.94;;;29.77;27.68
70781;BME280;59514;48.810;2.134;2022-07-29T11:22:10;100380.69;;;29.77;28.10
70781;BME280;59514;48.810;2.134;2022-07-29T11:24:36;100377.72;;;30.13;27.78
70781;BME280;59514;48.810;2.134;2022-07-29T11:30:01;100377.25;;;30.54;27.15
70781;BME280;59514;48.810;2.134;2022-07-29T11:32:36;100371.16;;;30.96;26.42
70781;BME280;59514;48.810;2.134;2022-07-29T11:35:22;100369.66;;;29.93;27.58
70781;BME280;59514;48.810;2.134;2022-07-29T11:38:26;100376.97;;;28.25;30.00
70781;BME280;59514;48.810;2.134;2022-07-29T11:43:56;100375.91;;;27.84;30.77
70781;BME280;59514;48.810;2.134;2022-07-29T11:47:01;100381.66;;;28.69;28.52
70781;BME280;59514;48.810;2.134;2022-07-29T11:49:27;100376.78;;;29.26;28.85
70781;BME280;59514;48.810;2.134;2022-07-29T11:51:54;100373.78;;;29.19;28.13
70781;BME280;59514;48.810;2.134;2022-07-29T11:54:33;100368.00;;;29.76;27.22
70781;BME280;59514;48.810;2.134;2022-07-29T11:56:59;100372.78;;;29.51;27.68
70781;BME280;59514;48.810;2.134;2022-07-29T11:59:26;100370.63;;;29.85;27.32
70781;BME280;59514;48.810;2.134;2022-07-29T12:01:59;100373.69;;;30.38;26.27
70781;BME280;59514;48.810;2.134;2022-07-29T12:04:25;100373.03;;;30.45;26.73
70781;BME280;59514;48.810;2.134;2022-07-29T12:06:54;100367.88;;;30.59;26.28
70781;BME280;59514;48.810;2.134;2022-07-29T12:09:21;100368.25;;;30.42;26.23
70781;BME280;59514;48.810;2.134;2022-07-29T12:11:47;100362.88;;;29.90;26.63
70781;BME280;59514;48.810;2.134;2022-07-29T12:16:51;100369.31;;;29.94;26.67
70781;BME280;59514;48.810;2.134;2022-07-29T12:19:16;100367.16;;;30.03;26.11
70781;BME280;59514;48.810;2.134;2022-07-29T12:21:49;100371.00;;;30.89;25.88
70781;BME280;59514;48.810;2.134;2022-07-29T12:24:15;100369.38;;;31.22;24.75
70781;BME280;59514;48.810;2.134;2022-07-29T12:26:53;100370.00;;;31.31;25.08
70781;BME280;59514;48.810;2.134;2022-07-29T12:29:19;100375.84;;;31.84;23.88
70781;BME280;59514;48.810;2.134;2022-07-29T12:31:45;100368.59;;;30.87;24.34
70781;BME280;59514;48.810;2.134;2022-07-29T12:34:12;100362.59;;;31.20;24.92
70781;BME280;59514;48.810;2.134;2022-07-29T12:36:38;100361.59;;;32.04;22.95
70781;BME280;59514;48.810;2.134;2022-07-29T12:39:04;100364.53;;;32.34;23.73
70781;BME280;59514;48.810;2.134;2022-07-29T12:41:29;100373.94;;;30.49;24.87
70781;BME280;59514;48.810;2.134;2022-07-29T12:43:55;100370.53;;;30.71;24.73
70781;BME280;59514;48.810;2.134;2022-07-29T12:46:21;100365.28;;;29.92;26.22
70781;BME280;59514;48.810;2.134;2022-07-29T12:48:51;100364.50;;;31.16;25.06
70781;BME280;59514;48.810;2.134;2022-07-29T12:51:32;100368.28;;;31.62;23.63
70781;BME280;59514;48.810;2.134;2022-07-29T12:54:03;100363.38;;;31.20;25.18
70781;BME280;59514;48.810;2.134;2022-07-29T12:56:29;100356.94;;;29.76;25.87
70781;BME280;59514;48.810;2.134;2022-07-29T12:58:54;100362.88;;;31.15;24.22
70781;BME280;59514;48.810;2.134;2022-07-29T13:01:20;100357.13;;;32.19;23.94
70781;BME280;59514;48.810;2.134;2022-07-29T13:03:58;100364.06;;;31.68;23.30
70781;BME280;59514;48.810;2.134;2022-07-29T13:06:36;100365.56;;;29.47;26.28
70781;BME280;59514;48.810;2.134;2022-07-29T13:09:12;100373.28;;;29.41;25.56
70781;BME280;59514;48.810;2.134;2022-07-29T13:11:39;100366.84;;;29.37;26.13
70781;BME280;59514;48.810;2.134;2022-07-29T13:14:07;100358.94;;;29.24;26.57
70781;BME280;59514;48.810;2.134;2022-07-29T13:16:33;100365.94;;;29.21;26.67
70781;BME280;59514;48.810;2.134;2022-07-29T13:19:07;100362.28;;;29.05;27.63
70781;BME280;59514;48.810;2.134;2022-07-29T13:21:32;100370.91;;;28.91;28.04
70781;BME280;59514;48.810;2.134;2022-07-29T13:23:58;100371.06;;;28.71;28.49
70781;BME280;59514;48.810;2.134;2022-07-29T13:26:23;100367.84;;;29.17;27.22
70781;BME280;59514;48.810;2.134;2022-07-29T13:28:49;100368.50;;;28.66;27.87
70781;BME280;59514;48.810;2.134;2022-07-29T13:31:14;100366.69;;;28.13;28.87
70781;BME280;59514;48.810;2.134;2022-07-29T13:33:40;100370.00;;;27.74;29.04
70781;BME280;59514;48.810;2.134;2022-07-29T13:36:06;100363.38;;;27.87;28.78
70781;BME280;59514;48.810;2.134;2022-07-29T13:38:31;100365.50;;;27.69;29.29